Time;durP1;ratioP1;P1;durP2;ratioP2;P2;SDS_P1;SDS_P2;PMS_P1;PMS_P2;Temp;Humidity;BMP_temperature;BMP_pressure;BME280_temperature;BME280_humidity;BME280_pressure;Samples;Min_cycle;Max_cycle;Signal;HPM_P1;HPM_P2
2022/04/24 00:01:14;;;;;;;18.93;17.23;;;;;;;10.59;100.00;98311.66;5021017;28;20267;-57
2022/04/24 00:03:39;;;;;;;20.40;18.50;;;;;;;10.57;100.00;98317.81;5021623;28;20192;-56
2022/04/24 00:06:04;;;;;;;18.87;17.17;;;;;;;10.49;100.00;98320.72;5019107;28;20195;-56
2022/04/24 00:08:30;;;;;;;18.73;17.03;;;;;;;10.48;100.00;98330.19;5016815;28;20183;-56
2022/04/24 00:10:55;;;;;;;19.07;17.27;;;;;;;10.48;100.00;98321.63;5019024;28;20220;-57
2022/04/24 00:13:23;;;;;;;18.53;16.83;;;;;;;10.46;100.00;98332.00;5026902;28;20188;-57
2022/04/24 00:15:48;;;;;;;18.67;16.87;;;;;;;10.43;100.00;98326.13;5026189;28;20187;-56
2022/04/24 00:18:14;;;;;;;17.97;16.27;;;;;;;10.47;100.00;98327.69;5023520;28;20187;-56
2022/04/24 00:20:39;;;;;;;17.73;16.13;;;;;;;10.44;100.00;98322.63;5024536;28;20200;-56
2022/04/24 00:23:04;;;;;;;17.67;16.10;;;;;;;10.42;100.00;98321.84;5025275;28;20195;-56
2022/04/24 00:25:30;;;;;;;19.03;17.20;;;;;;;10.43;100.00;98324.41;5026323;28;20672;-57
2022/04/24 00:27:55;;;;;;;17.77;16.20;;;;;;;10.46;100.00;98319.06;5019596;28;20207;-57
2022/04/24 00:30:20;;;;;;;19.40;17.50;;;;;;;10.48;100.00;98309.50;5022334;28;20244;-57
2022/04/24 00:32:46;;;;;;;18.60;16.97;;;;;;;10.46;100.00;98305.31;5025116;28;20393;-56
2022/04/24 00:35:11;;;;;;;19.27;17.47;;;;;;;10.50;100.00;98301.72;5023078;28;20190;-57
2022/04/24 00:37:36;;;;;;;18.17;16.47;;;;;;;10.52;100.00;98300.75;5024555;28;20227;-56
2022/04/24 00:40:02;;;;;;;18.07;16.47;;;;;;;10.52;100.00;98302.47;5026336;28;20617;-58
2022/04/24 00:42:29;;;;;;;17.00;15.47;;;;;;;10.51;100.00;98308.56;5021902;28;20187;-56
2022/04/24 00:44:55;;;;;;;17.73;16.03;;;;;;;10.57;100.00;98308.31;5030973;28;20868;-56
2022/04/24 00:47:22;;;;;;;18.27;16.57;;;;;;;10.54;100.00;98311.00;5019351;28;20266;-56
2022/04/24 00:49:48;;;;;;;18.40;16.80;;;;;;;10.54;100.00;98308.41;5027427;28;20223;-57
2022/04/24 00:52:14;;;;;;;18.87;17.17;;;;;;;10.61;100.00;98303.84;5030589;28;20207;-57
2022/04/24 00:54:40;;;;;;;17.47;15.80;;;;;;;10.62;100.00;98306.38;5029390;28;20184;-57
2022/04/24 00:57:07;;;;;;;17.57;15.97;;;;;;;10.65;100.00;98318.34;5027529;28;20195;-57
2022/04/24 00:59:32;;;;;;;17.30;15.80;;;;;;;10.64;100.00;98311.47;5031358;28;20232;-56
2022/04/24 01:01:59;;;;;;;17.63;16.03;;;;;;;10.65;100.00;98316.59;5031223;28;20613;-56
2022/04/24 01:04:24;;;;;;;18.23;16.53;;;;;;;10.65;100.00;98311.44;5022061;28;20188;-56
2022/04/24 01:06:50;;;;;;;16.17;14.77;;;;;;;10.65;100.00;98314.03;5027819;28;20246;-57
2022/04/24 01:09:23;;;;;;;17.00;15.50;;;;;;;10.67;100.00;98314.78;5030163;28;20279;-57
2022/04/24 01:11:54;;;;;;;17.27;15.67;;;;;;;10.71;100.00;98317.25;5015298;28;20192;-58
2022/04/24 01:14:25;;;;;;;15.83;14.43;;;;;;;10.71;100.00;98317.25;5025331;28;20241;-59
2022/04/24 01:16:51;;;;;;;17.93;16.20;;;;;;;10.70;100.00;98312.97;5026956;28;20706;-58
2022/04/24 01:19:17;;;;;;;16.03;14.57;;;;;;;10.72;100.00;98314.59;5020366;28;20258;-58
2022/04/24 01:21:43;;;;;;;16.10;14.80;;;;;;;10.72;100.00;98313.75;5029388;28;20183;-58
2022/04/24 01:24:10;;;;;;;16.20;14.80;;;;;;;10.70;100.00;98320.72;5031039;28;20659;-57
2022/04/24 01:26:35;;;;;;;16.13;14.77;;;;;;;10.70;100.00;98324.16;5016286;28;20216;-58
2022/04/24 01:29:02;;;;;;;16.27;14.77;;;;;;;10.67;100.00;98321.72;5029559;28;20234;-58
2022/04/24 01:31:28;;;;;;;16.17;14.77;;;;;;;10.66;100.00;98325.19;5024845;28;20566;-57
2022/04/24 01:33:53;;;;;;;15.70;14.30;;;;;;;10.66;100.00;98322.59;5029656;28;20191;-57
2022/04/24 01:36:19;;;;;;;16.00;14.40;;;;;;;10.64;100.00;98329.59;5028339;28;20530;-57
2022/04/24 01:38:44;;;;;;;15.63;14.17;;;;;;;10.63;100.00;98336.53;5027451;28;20193;-58
2022/04/24 01:41:10;;;;;;;15.43;13.93;;;;;;;10.63;100.00;98336.53;5030514;28;20670;-57
2022/04/24 01:43:38;;;;;;;15.67;14.03;;;;;;;10.63;100.00;98344.28;5023390;28;20183;-57
2022/04/24 01:46:04;;;;;;;16.73;15.17;;;;;;;10.63;100.00;98346.00;5021384;28;20302;-58
2022/04/24 01:48:32;;;;;;;15.50;14.10;;;;;;;10.60;100.00;98341.81;5024181;28;20733;-57
2022/04/24 01:50:57;;;;;;;16.03;14.63;;;;;;;10.60;100.00;98339.22;5026450;28;20212;-55
2022/04/24 01:53:23;;;;;;;15.20;13.90;;;;;;;10.61;100.00;98340.91;5015907;28;20183;-57
2022/04/24 01:55:48;;;;;;;15.77;14.27;;;;;;;10.61;100.00;98347.81;5029244;28;20222;-58
2022/04/24 01:58:14;;;;;;;16.13;14.73;;;;;;;10.63;100.00;98352.03;5025553;28;20641;-57
2022/04/24 02:00:39;;;;;;;15.87;14.50;;;;;;;10.62;100.00;98350.34;5023622;28;20323;-56
2022/04/24 02:03:04;;;;;;;15.50;14.00;;;;;;;10.62;100.00;98352.94;5024407;28;20241;-56
2022/04/24 02:05:30;;;;;;;15.30;13.97;;;;;;;10.62;100.00;98347.78;5026990;28;20667;-57
2022/04/24 02:07:55;;;;;;;16.17;14.77;;;;;;;10.66;100.00;98351.06;5016087;28;20246;-57
2022/04/24 02:10:21;;;;;;;16.00;14.60;;;;;;;10.67;100.00;98352.75;5025095;28;20246;-56
2022/04/24 02:12:46;;;;;;;15.53;14.13;;;;;;;10.66;100.00;98351.88;5024599;28;20199;-57
2022/04/24 02:15:12;;;;;;;16.13;14.73;;;;;;;10.66;100.00;98348.47;5029976;28;20176;-56
2022/04/24 02:17:37;;;;;;;15.73;14.33;;;;;;;10.62;100.00;98350.34;5023930;28;20187;-57
2022/04/24 02:20:03;;;;;;;15.70;14.30;;;;;;;10.66;100.00;98351.06;5024278;28;20308;-58
2022/04/24 02:22:33;;;;;;;15.80;14.40;;;;;;;10.66;100.00;98354.47;5025081;28;20187;-58
2022/04/24 02:24:59;;;;;;;16.60;15.13;;;;;;;10.65;100.00;98352.81;5030211;28;20700;-58
2022/04/24 02:27:25;;;;;;;16.57;15.17;;;;;;;10.62;100.00;98358.13;5014610;28;20184;-58
2022/04/24 02:29:50;;;;;;;17.30;15.73;;;;;;;10.61;100.00;98356.44;5022494;28;20544;-57
2022/04/24 02:32:15;;;;;;;16.63;15.23;;;;;;;10.61;100.00;98355.56;5025596;28;20240;-58
2022/04/24 02:34:41;;;;;;;17.07;15.37;;;;;;;10.61;100.00;98356.44;5021404;28;20326;-55
2022/04/24 02:37:06;;;;;;;16.47;15.00;;;;;;;10.59;100.00;98363.41;5018800;28;20199;-58
2022/04/24 02:39:31;;;;;;;16.10;14.70;;;;;;;10.56;100.00;98363.53;5021556;28;20214;-58
2022/04/24 02:41:57;;;;;;;16.50;15.00;;;;;;;10.58;100.00;98366.88;5025853;28;20226;-57
2022/04/24 02:44:22;;;;;;;17.07;15.33;;;;;;;10.58;100.00;98356.53;5024578;28;20195;-57
2022/04/24 02:46:47;;;;;;;16.33;14.83;;;;;;;10.59;100.00;98362.56;5021398;28;20191;-58
2022/04/24 02:49:13;;;;;;;17.07;15.57;;;;;;;10.61;100.00;98350.41;5026818;28;20603;-59
2022/04/24 02:51:38;;;;;;;15.97;14.57;;;;;;;10.59;100.00;98355.66;5020285;28;20241;-57
2022/04/24 02:54:04;;;;;;;15.10;13.83;;;;;;;10.60;100.00;98362.50;5027602;28;20238;-57
2022/04/24 02:56:29;;;;;;;13.93;12.73;;;;;;;10.63;100.00;98358.94;5016277;28;20249;-57
2022/04/24 02:58:55;;;;;;;13.47;12.27;;;;;;;10.68;100.00;98359.59;5026789;28;20275;-57
2022/04/24 03:01:22;;;;;;;13.87;12.67;;;;;;;10.74;100.00;98358.50;5022238;28;20215;-57
2022/04/24 03:03:49;;;;;;;13.73;12.53;;;;;;;10.77;100.00;98358.41;5025156;28;20192;-58
2022/04/24 03:06:15;;;;;;;13.83;12.63;;;;;;;10.77;100.00;98353.22;5028425;28;20211;-58
2022/04/24 03:08:41;;;;;;;12.83;11.80;;;;;;;10.77;100.00;98353.22;5025669;28;20215;-58
2022/04/24 03:11:07;;;;;;;13.53;12.33;;;;;;;10.78;100.00;98363.50;5029060;28;20207;-56
2022/04/24 03:13:32;;;;;;;14.40;13.10;;;;;;;10.81;100.00;98358.19;5023141;28;20684;-55
2022/04/24 03:15:57;;;;;;;13.23;12.13;;;;;;;10.85;100.00;98368.44;5022531;28;20184;-56
2022/04/24 03:18:23;;;;;;;12.53;11.53;;;;;;;10.88;100.00;98356.19;5024822;28;20189;-56
2022/04/24 03:20:48;;;;;;;12.80;11.80;;;;;;;10.92;100.00;98370.72;5028753;28;20291;-59
2022/04/24 03:23:14;;;;;;;12.73;11.63;;;;;;;10.95;100.00;98375.75;5024457;28;20279;-55
2022/04/24 03:25:39;;;;;;;12.63;11.57;;;;;;;10.97;100.00;98391.22;5018942;28;20685;-59
2022/04/24 03:28:08;;;;;;;12.20;11.20;;;;;;;10.98;100.00;98390.31;5026713;28;20270;-56
2022/04/24 03:30:34;;;;;;;11.37;10.37;;;;;;;11.00;100.00;98388.50;5022213;28;20222;-57
2022/04/24 03:32:59;;;;;;;12.60;11.60;;;;;;;11.03;100.00;98390.13;5024775;28;20188;-56
2022/04/24 03:35:26;;;;;;;12.90;11.80;;;;;;;11.04;100.00;98386.63;5027782;28;20261;-58
2022/04/24 03:37:51;;;;;;;15.57;14.17;;;;;;;11.05;100.00;98394.31;5014876;28;20192;-57
2022/04/24 03:40:17;;;;;;;15.20;13.90;;;;;;;11.04;100.00;98395.22;5023082;28;20203;-57
2022/04/24 03:42:42;;;;;;;15.53;14.13;;;;;;;11.04;100.00;98389.22;5020521;28;20183;-57
2022/04/24 03:45:11;;;;;;;13.23;12.13;;;;;;;11.04;100.00;98390.03;5028358;28;20199;-56
2022/04/24 03:47:37;;;;;;;14.93;13.57;;;;;;;11.06;100.00;98392.59;5020716;28;20196;-57
2022/04/24 03:50:04;;;;;;;15.30;13.93;;;;;;;11.05;100.00;98393.50;5022853;28;20218;-57
2022/04/24 03:52:30;;;;;;;17.33;15.63;;;;;;;11.07;100.00;98399.44;5026478;28;20278;-56
2022/04/24 03:54:56;;;;;;;17.63;16.03;;;;;;;11.07;100.00;98400.28;5026850;28;20202;-57
2022/04/24 03:57:21;;;;;;;19.67;17.87;;;;;;;11.09;100.00;98395.06;5010380;28;20193;-56
2022/04/24 03:59:47;;;;;;;19.67;17.80;;;;;;;11.07;100.00;98397.69;5019541;28;20217;-56
2022/04/24 04:02:13;;;;;;;19.80;18.07;;;;;;;11.07;100.00;98402.03;5016377;28;20196;-57
2022/04/24 04:04:38;;;;;;;21.20;19.20;;;;;;;11.07;100.00;98402.03;5024475;28;20706;-59
2022/04/24 04:07:04;;;;;;;23.80;21.60;;;;;;;11.09;100.00;98408.00;5024492;28;20191;-59
2022/04/24 04:09:30;;;;;;;22.70;20.60;;;;;;;11.06;100.00;98413.28;5025199;28;20246;-58
2022/04/24 04:11:56;;;;;;;23.30;21.07;;;;;;;11.06;100.00;98414.13;5023784;28;20306;-59
2022/04/24 04:14:24;;;;;;;23.53;21.43;;;;;;;11.04;100.00;98420.28;5019496;28;20176;-58
2022/04/24 04:16:50;;;;;;;23.70;21.57;;;;;;;11.02;100.00;98416.91;5022366;28;20195;-57
2022/04/24 04:19:16;;;;;;;24.30;21.93;;;;;;;11.04;100.00;98425.44;5024946;28;20196;-59
2022/04/24 04:21:43;;;;;;;24.60;22.20;;;;;;;11.02;100.00;98422.94;5023455;28;20195;-59
2022/04/24 04:24:09;;;;;;;23.47;21.27;;;;;;;11.00;100.00;98429.06;5024866;28;20245;-58
2022/04/24 04:26:34;;;;;;;24.07;21.87;;;;;;;11.00;100.00;98424.75;5018370;28;20248;-57
2022/04/24 04:29:00;;;;;;;22.23;20.17;;;;;;;10.97;100.00;98435.22;5023718;28;20549;-57
2022/04/24 04:31:25;;;;;;;24.07;21.77;;;;;;;10.95;100.00;98442.19;5022888;28;20222;-58
2022/04/24 04:33:50;;;;;;;21.80;19.80;;;;;;;10.96;100.00;98436.13;5013732;28;20204;-57
2022/04/24 04:36:16;;;;;;;20.47;18.67;;;;;;;10.98;100.00;98452.44;5018773;28;20191;-58
2022/04/24 04:38:42;;;;;;;19.17;17.33;;;;;;;10.98;100.00;98453.25;5023955;28;20256;-58
2022/04/24 04:41:07;;;;;;;15.07;13.67;;;;;;;10.98;100.00;98447.25;5025475;28;20235;-58
2022/04/24 04:43:33;;;;;;;9.27;8.47;;;;;;;10.98;100.00;98449.84;5016780;28;20355;-58
2022/04/24 04:45:58;;;;;;;8.63;7.73;;;;;;;10.95;100.00;98456.00;5024779;28;20215;-57
2022/04/24 04:48:24;;;;;;;6.53;5.90;;;;;;;10.90;100.00;98459.63;5021896;28;20202;-57
2022/04/24 04:50:49;;;;;;;5.93;5.20;;;;;;;10.84;100.00;98465.91;5017404;28;20242;-57
2022/04/24 04:53:15;;;;;;;4.40;4.00;;;;;;;10.76;100.00;98467.97;5023499;28;20611;-56
2022/04/24 04:55:40;;;;;;;4.10;3.70;;;;;;;10.75;100.00;98463.69;5024122;28;20281;-58
2022/04/24 04:58:05;;;;;;;2.97;2.77;;;;;;;10.72;100.00;98482.78;5026055;28;20299;-56
2022/04/24 05:00:31;;;;;;;2.57;2.33;;;;;;;10.65;100.00;98479.59;5022626;28;20248;-56
2022/04/24 05:02:56;;;;;;;2.57;2.20;;;;;;;10.61;100.00;98498.69;5016031;28;20683;-56
2022/04/24 05:05:22;;;;;;;2.83;1.87;;;;;;;10.58;100.00;98482.47;5017018;28;20200;-56
2022/04/24 05:07:47;;;;;;;2.27;1.87;;;;;;;10.50;100.00;98488.75;5017171;28;20184;-57
2022/04/24 05:10:12;;;;;;;1.70;1.60;;;;;;;10.48;100.00;98495.72;5015915;28;20681;-56
2022/04/24 05:12:38;;;;;;;1.70;1.60;;;;;;;10.42;100.00;98505.44;5013352;28;20211;-56
2022/04/24 05:15:08;;;;;;;1.80;1.70;;;;;;;10.37;100.00;98505.59;5019576;28;20697;-57
2022/04/24 05:17:35;;;;;;;2.40;2.20;;;;;;;10.38;100.00;98517.66;5012460;28;20224;-57
2022/04/24 05:20:01;;;;;;;2.33;1.80;;;;;;;10.36;100.00;98519.41;5015578;28;20223;-57
2022/04/24 05:22:26;;;;;;;2.20;1.60;;;;;;;10.32;100.00;98523.00;5020106;28;20197;-57
2022/04/24 05:24:52;;;;;;;2.23;1.00;;;;;;;10.34;100.00;98528.97;5015807;28;20184;-59
2022/04/24 05:27:19;;;;;;;3.00;1.10;;;;;;;10.32;100.00;98548.88;5021267;28;20194;-58
2022/04/24 05:29:44;;;;;;;2.23;0.90;;;;;;;10.18;100.00;98549.38;5018835;28;20245;-58
2022/04/24 05:32:10;;;;;;;2.53;0.80;;;;;;;10.12;100.00;98562.50;5021618;28;20226;-57
2022/04/24 05:34:36;;;;;;;1.70;0.80;;;;;;;10.09;100.00;98560.88;5019564;28;20219;-55
2022/04/24 05:37:03;;;;;;;1.37;0.80;;;;;;;10.09;100.00;98565.19;5021735;28;20352;-54
2022/04/24 05:39:28;;;;;;;1.37;0.60;;;;;;;10.11;100.00;98571.16;5024521;28;20213;-55
2022/04/24 05:41:53;;;;;;;0.70;0.70;;;;;;;10.10;100.00;98577.22;5023779;28;20188;-54
2022/04/24 05:44:19;;;;;;;1.07;0.73;;;;;;;10.11;100.00;98574.59;5028291;28;20633;-55
2022/04/24 05:46:44;;;;;;;1.20;0.67;;;;;;;10.12;100.00;98575.44;5020106;28;20195;-55
2022/04/24 05:49:09;;;;;;;0.80;0.50;;;;;;;10.10;100.00;98579.81;5021886;28;20219;-53
2022/04/24 05:51:35;;;;;;;1.00;0.60;;;;;;;10.11;100.00;98584.06;5018749;28;20202;-54
2022/04/24 05:54:00;;;;;;;0.80;0.60;;;;;;;10.11;100.00;98579.78;5021880;28;20280;-53
2022/04/24 05:56:26;;;;;;;1.03;0.80;;;;;;;10.12;100.00;98580.59;5021357;28;20223;-55
2022/04/24 05:58:51;;;;;;;1.57;0.47;;;;;;;10.12;100.00;98586.63;5018313;28;20250;-55
2022/04/24 06:01:17;;;;;;;0.90;0.50;;;;;;;10.13;100.00;98587.47;5020588;28;20227;-55
2022/04/24 06:03:45;;;;;;;1.70;0.73;;;;;;;10.13;100.00;98587.47;5016958;28;20217;-54
2022/04/24 06:06:11;;;;;;;1.57;0.70;;;;;;;10.14;100.00;98583.97;5021005;28;20188;-54
2022/04/24 06:08:36;;;;;;;0.80;0.67;;;;;;;10.12;100.00;98573.69;5017694;28;20261;-56
2022/04/24 06:11:02;;;;;;;1.30;0.70;;;;;;;10.15;100.00;98588.25;5018019;28;20216;-55
2022/04/24 06:13:29;;;;;;;1.13;0.77;;;;;;;10.14;100.00;98591.72;5023069;28;20192;-54
2022/04/24 06:15:57;;;;;;;1.63;0.80;;;;;;;10.17;100.00;98586.47;5018920;28;20269;-55
2022/04/24 06:18:24;;;;;;;1.13;0.77;;;;;;;10.14;100.00;98589.97;5025729;28;20191;-56
2022/04/24 06:20:50;;;;;;;1.87;0.77;;;;;;;10.15;100.00;98598.59;5023805;28;20207;-53
2022/04/24 06:23:15;;;;;;;1.07;0.70;;;;;;;10.18;100.00;98591.56;5024600;28;20253;-55
2022/04/24 06:25:41;;;;;;;1.27;0.77;;;;;;;10.20;100.00;98594.13;5021367;28;20276;-56
2022/04/24 06:28:06;;;;;;;1.37;0.70;;;;;;;10.26;100.00;98593.88;5023903;28;20222;-55
2022/04/24 06:30:33;;;;;;;1.10;1.00;;;;;;;10.31;100.00;98598.88;5026270;28;20231;-57
2022/04/24 06:33:01;;;;;;;1.13;0.63;;;;;;;10.34;100.00;98594.47;5024188;28;20242;-54
2022/04/24 06:35:27;;;;;;;1.30;0.90;;;;;;;10.40;100.00;98596.03;5023641;28;20213;-53
2022/04/24 06:37:54;;;;;;;1.23;0.77;;;;;;;10.43;100.00;98600.25;5017787;28;20199;-53
2022/04/24 06:40:19;;;;;;;0.70;0.50;;;;;;;10.47;100.00;98601.81;5021677;28;20211;-55
2022/04/24 06:43:00;;;;;;;1.07;0.80;;;;;;;10.48;100.00;98598.34;5020798;28;20196;-53
2022/04/24 06:45:35;;;;;;;1.77;0.80;;;;;;;10.50;100.00;98602.56;5021800;28;20219;-54
2022/04/24 06:48:06;;;;;;;1.37;0.60;;;;;;;10.48;100.00;98603.53;5019527;28;20192;-53
2022/04/24 06:50:33;;;;;;;2.50;0.90;;;;;;;10.49;100.00;98608.63;5021117;28;20215;-53
2022/04/24 06:53:20;;;;;;;1.43;0.83;;;;;;;10.54;100.00;98607.63;5020319;28;20535;-53
2022/04/24 06:55:47;;;;;;;1.77;0.70;;;;;;;10.58;100.00;98601.44;5023506;28;20195;-54
2022/04/24 06:58:14;;;;;;;1.70;0.83;;;;;;;10.65;100.00;98611.53;5014011;28;20604;-54
2022/04/24 07:00:42;;;;;;;1.53;0.67;;;;;;;10.72;100.00;98606.97;5025888;28;20222;-53
2022/04/24 07:03:26;;;;;;;1.60;0.70;;;;;;;10.79;100.00;98613.59;5018480;28;20302;-53
2022/04/24 07:05:57;;;;;;;2.57;2.10;;;;;;;10.85;100.00;98606.50;5013616;28;21120;-52
2022/04/24 07:08:24;;;;;;;3.67;3.47;;;;;;;10.94;100.00;98611.31;5016074;28;20203;-53
2022/04/24 07:10:49;;;;;;;2.90;2.70;;;;;;;11.00;100.00;98616.28;5020158;28;20692;-53
2022/04/24 07:13:15;;;;;;;1.90;1.80;;;;;;;11.06;100.00;98620.38;5018806;28;20200;-53
2022/04/24 07:15:40;;;;;;;2.30;2.10;;;;;;;11.13;100.00;98614.91;5014848;28;20191;-53
2022/04/24 07:18:07;;;;;;;4.10;3.60;;;;;;;11.24;100.00;98622.28;5017564;28;20196;-55
2022/04/24 07:20:33;;;;;;;3.27;2.97;;;;;;;11.34;100.00;98611.56;5029511;28;20207;-54
2022/04/24 07:23:05;;;;;;;1.73;1.60;;;;;;;11.47;100.00;98614.50;5020389;28;20207;-53
2022/04/24 07:25:34;;;;;;;2.30;2.10;;;;;;;11.59;100.00;98614.84;5023386;28;20531;-53
2022/04/24 07:28:00;;;;;;;2.90;2.63;;;;;;;11.74;100.00;98612.53;5022747;28;20184;-52
2022/04/24 07:30:25;;;;;;;3.60;3.30;;;;;;;11.88;100.00;98615.41;5021998;28;20633;-53
2022/04/24 07:32:55;;;;;;;1.93;1.83;;;;;;;12.01;100.00;98614.97;5018989;28;20206;-53
2022/04/24 07:35:23;;;;;;;1.30;1.20;;;;;;;12.15;100.00;98612.63;5016805;28;20219;-54
2022/04/24 07:37:49;;;;;;;1.37;1.07;;;;;;;12.26;100.00;98611.31;5019683;28;20585;-53
2022/04/24 07:40:17;;;;;;;1.80;1.57;;;;;;;12.35;100.00;98629.06;5020398;28;20208;-53
2022/04/24 07:42:55;;;;;;;1.17;0.80;;;;;;;12.42;100.00;98630.50;5018601;28;20519;-54
2022/04/24 07:45:30;;;;;;;1.00;0.90;;;;;;;12.41;100.00;98628.81;5027440;28;20653;-54
2022/04/24 07:47:57;;;;;;;2.27;1.80;;;;;;;12.37;100.00;98629.84;5014076;28;20192;-53
2022/04/24 07:50:25;;;;;;;1.90;1.07;;;;;;;12.28;100.00;98630.25;5028582;28;20750;-54
2022/04/24 07:52:51;;;;;;;2.20;1.13;;;;;;;12.27;100.00;98628.56;5030035;28;20223;-54
2022/04/24 07:55:19;;;;;;;1.00;0.90;;;;;;;12.27;100.00;98624.22;5029782;28;20645;-52
2022/04/24 07:57:48;;;;;;;11.57;10.47;;;;;;;12.33;100.00;98636.06;5009677;28;20221;-52
2022/04/24 08:00:15;;;;;;;15.07;13.47;;;;;;;12.38;100.00;98639.31;5015822;28;20241;-51
2022/04/24 08:03:01;;;;;;;8.53;7.63;;;;;;;12.48;100.00;98634.59;5022019;28;20258;-54
2022/04/24 08:05:38;;;;;;;2.70;2.07;;;;;;;12.55;100.00;98641.22;5022545;28;20603;-50
2022/04/24 08:08:06;;;;;;;1.53;1.10;;;;;;;12.53;100.00;98642.16;5021620;28;20701;-52
2022/04/24 08:10:37;;;;;;;0.80;0.77;;;;;;;12.48;100.00;98642.38;5012171;28;20221;-53
2022/04/24 08:13:06;;;;;;;0.60;0.60;;;;;;;12.46;100.00;98642.44;5017505;28;20201;-52
2022/04/24 08:15:33;;;;;;;1.10;0.80;;;;;;;12.44;100.00;98641.66;5015922;28;20291;-53
2022/04/24 08:17:58;;;;;;;0.63;0.60;;;;;;;12.42;100.00;98646.06;5014152;28;20253;-53
2022/04/24 08:20:25;;;;;;;1.43;0.90;;;;;;;12.44;100.00;98646.84;5013260;28;20204;-53
2022/04/24 08:22:52;;;;;;;2.13;0.70;;;;;;;12.45;100.00;98650.28;5016127;28;20555;-53
2022/04/24 08:25:23;;;;;;;1.23;0.70;;;;;;;12.38;100.00;98654.06;5017740;28;20197;-53
2022/04/24 08:27:49;;;;;;;1.03;0.80;;;;;;;12.27;100.00;98655.34;5015606;28;20188;-53
2022/04/24 08:30:16;;;;;;;0.60;0.60;;;;;;;12.14;100.00;98652.44;5024711;28;20289;-54
2022/04/24 08:32:42;;;;;;;0.80;0.73;;;;;;;12.04;100.00;98651.97;5024378;28;20688;-53
2022/04/24 08:35:10;;;;;;;1.17;0.80;;;;;;;11.99;100.00;98659.06;5018235;28;20184;-54
2022/04/24 08:37:36;;;;;;;1.83;1.00;;;;;;;11.96;100.00;98653.97;5026605;28;20195;-53
2022/04/24 08:40:05;;;;;;;1.03;0.93;;;;;;;11.97;100.00;98652.25;5015540;28;20211;-53
2022/04/24 08:42:32;;;;;;;1.73;0.93;;;;;;;11.92;100.00;98652.44;5018503;28;20249;-53
2022/04/24 08:44:57;;;;;;;1.10;1.00;;;;;;;11.91;100.00;98663.72;5016961;28;20185;-52
2022/04/24 08:47:24;;;;;;;1.60;0.80;;;;;;;11.93;100.00;98654.13;5017264;28;20285;-53
2022/04/24 08:49:55;;;;;;;1.83;1.20;;;;;;;11.97;100.00;98663.44;5013454;28;20227;-52
2022/04/24 08:52:21;;;;;;;1.83;1.20;;;;;;;11.97;100.00;98660.03;5016473;28;20203;-52
2022/04/24 08:54:49;;;;;;;1.10;0.80;;;;;;;12.00;100.00;98660.75;5014616;28;20492;-53
2022/04/24 08:57:15;;;;;;;1.30;0.90;;;;;;;11.99;100.00;98661.66;5018906;28;20204;-53
2022/04/24 08:59:41;;;;;;;1.80;1.40;;;;;;;12.03;100.00;98663.25;5017358;28;20215;-53
2022/04/24 09:02:06;;;;;;;3.13;2.73;;;;;;;12.13;100.00;98668.03;5026440;28;20187;-53
2022/04/24 09:04:33;;;;;;;2.13;1.80;;;;;;;12.24;100.00;98673.66;5020025;28;20570;-53
2022/04/24 09:07:02;;;;;;;2.83;1.63;;;;;;;12.29;100.00;98678.63;5018382;28;20192;-53
2022/04/24 09:09:28;;;;;;;1.57;1.20;;;;;;;12.35;100.00;98670.56;5019797;28;20232;-53
2022/04/24 09:12:05;;;;;;;1.90;1.33;;;;;;;12.39;100.00;98669.53;5029077;28;20619;-53
2022/04/24 09:14:32;;;;;;;1.80;1.70;;;;;;;12.45;100.00;98671.88;5024016;28;20837;-53
2022/04/24 09:17:00;;;;;;;2.93;2.30;;;;;;;12.55;100.00;98671.47;5017336;28;20187;-53
2022/04/24 09:19:26;;;;;;;1.87;1.73;;;;;;;12.64;100.00;98678.84;5018911;28;20204;-52
2022/04/24 09:22:00;;;;;;;1.17;1.07;;;;;;;12.65;100.00;98672.75;5016648;28;20194;-52
2022/04/24 09:24:39;;;;;;;1.60;1.40;;;;;;;12.65;100.00;98672.75;5015936;28;20200;-52
2022/04/24 09:27:05;;;;;;;1.70;1.53;;;;;;;12.62;100.00;98673.75;5014107;28;20548;-53
2022/04/24 09:29:30;;;;;;;2.43;2.23;;;;;;;12.62;100.00;98678.09;5021225;28;20576;-52
2022/04/24 09:31:55;;;;;;;1.50;1.40;;;;;;;12.58;100.00;98685.16;5026825;28;20213;-52
2022/04/24 09:34:27;;;;;;;2.40;2.20;;;;;;;12.52;100.00;98690.63;5025340;28;20215;-52
2022/04/24 09:37:06;;;;;;;2.90;2.70;;;;;;;12.50;100.00;98692.44;5015816;28;20603;-52
2022/04/24 09:39:34;;;;;;;3.40;3.10;;;;;;;12.46;100.00;98689.16;5023377;28;20209;-52
2022/04/24 09:42:10;;;;;;;2.80;2.60;;;;;;;12.46;100.00;98689.16;5026390;28;20249;-52
2022/04/24 09:44:41;;;;;;;2.57;2.20;;;;;;;12.43;100.00;98686.69;5018963;28;20784;-52
2022/04/24 09:47:07;;;;;;;1.60;1.50;;;;;;;12.44;100.00;98697.88;5017782;28;20190;-52
2022/04/24 09:49:39;;;;;;;1.30;1.10;;;;;;;12.46;100.00;98701.25;5013284;28;21016;-53
2022/04/24 09:52:18;;;;;;;1.10;1.00;;;;;;;12.46;100.00;98709.03;5017926;28;20188;-53
2022/04/24 09:54:51;;;;;;;1.73;1.07;;;;;;;12.47;100.00;98709.00;5014616;28;20194;-52
2022/04/24 09:57:18;;;;;;;0.90;0.90;;;;;;;12.43;100.00;98698.78;5014188;28;20214;-53
2022/04/24 09:59:46;;;;;;;0.80;0.80;;;;;;;12.44;100.00;98703.06;5010944;28;20568;-53
2022/04/24 10:02:14;;;;;;;1.23;0.87;;;;;;;12.40;100.00;98709.31;5021933;28;20571;-54
2022/04/24 10:04:40;;;;;;;2.33;1.70;;;;;;;12.38;100.00;98704.19;5019826;28;20199;-53
2022/04/24 10:07:11;;;;;;;1.43;1.23;;;;;;;12.32;100.00;98702.69;5013540;28;20184;-53
2022/04/24 10:09:38;;;;;;;1.83;1.30;;;;;;;12.25;100.00;98711.59;5015960;28;20218;-53
2022/04/24 10:12:06;;;;;;;1.83;0.80;;;;;;;12.18;100.00;98707.59;5019491;28;20189;-52
2022/04/24 10:14:37;;;;;;;1.00;0.90;;;;;;;12.08;100.00;98706.28;5018880;28;20206;-53
2022/04/24 10:17:28;;;;;;;0.80;0.80;;;;;;;12.01;100.00;98706.53;5021712;28;20642;-53
2022/04/24 10:20:09;;;;;;;1.10;0.80;;;;;;;11.95;100.00;98714.50;5020318;28;20227;-53
2022/04/24 10:22:40;;;;;;;1.30;0.80;;;;;;;11.88;100.00;98719.09;5016263;28;20193;-52
2022/04/24 10:25:07;;;;;;;1.07;0.73;;;;;;;11.84;100.00;98717.56;5019982;28;20274;-52
2022/04/24 10:27:44;;;;;;;1.00;0.90;;;;;;;11.87;100.00;98721.75;5013990;28;20180;-52
2022/04/24 10:30:19;;;;;;;1.43;0.90;;;;;;;11.87;100.00;98714.81;5023105;28;20211;-53
2022/04/24 10:32:48;;;;;;;0.93;0.80;;;;;;;11.89;100.00;98720.78;5015906;28;20231;-51
2022/04/24 10:35:19;;;;;;;1.00;0.90;;;;;;;11.94;100.00;98724.94;5009330;28;20191;-52
2022/04/24 10:37:48;;;;;;;1.63;1.00;;;;;;;11.95;100.00;98721.47;5012484;28;20251;-53
2022/04/24 10:40:16;;;;;;;1.07;0.93;;;;;;;11.98;100.00;98722.19;5012496;28;20211;-52
2022/04/24 10:42:43;;;;;;;0.83;0.80;;;;;;;12.02;100.00;98716.00;5023320;28;20207;-51
2022/04/24 10:45:14;;;;;;;1.30;0.70;;;;;;;11.99;100.00;98728.25;5021785;28;20193;-52
2022/04/24 10:48:05;;;;;;;1.20;0.90;;;;;;;11.98;100.00;98734.31;5013149;28;20195;-52
2022/04/24 10:50:31;;;;;;;1.33;0.83;;;;;;;11.98;100.00;98732.56;5016409;28;20230;-52
2022/04/24 10:52:56;;;;;;;1.57;1.30;;;;;;;11.96;100.00;98741.28;5016053;28;20561;-52
2022/04/24 10:55:26;;;;;;;1.20;1.10;;;;;;;11.98;100.00;98735.16;5014865;28;20220;-52
2022/04/24 10:57:59;;;;;;;2.37;1.57;;;;;;;11.99;100.00;98741.22;5016926;28;20209;-52
2022/04/24 11:00:34;;;;;;;1.47;1.33;;;;;;;12.03;100.00;98741.03;5010882;28;20927;-52
2022/04/24 11:03:14;;;;;;;1.23;1.10;;;;;;;12.11;100.00;98735.53;5016557;28;20191;-52
2022/04/24 11:05:42;;;;;;;1.60;1.40;;;;;;;12.19;100.00;98738.66;5026170;28;20556;-52
2022/04/24 11:08:09;;;;;;;1.43;1.10;;;;;;;12.31;100.00;98744.25;5018349;28;20215;-52
2022/04/24 11:10:42;;;;;;;1.00;1.00;;;;;;;12.38;100.00;98743.09;5013945;28;20220;-52
2022/04/24 11:13:10;;;;;;;1.23;1.13;;;;;;;12.45;100.00;98746.28;5016133;28;20911;-53
2022/04/24 11:15:39;;;;;;;1.00;0.90;;;;;;;12.50;100.00;98746.94;5014977;28;20654;-53
2022/04/24 11:18:05;;;;;;;1.20;1.07;;;;;;;12.52;100.00;98754.63;5012652;28;20199;-53
2022/04/24 11:20:31;;;;;;;0.97;0.97;;;;;;;12.56;100.00;98753.63;5015520;28;20205;-52